Time;durP1;ratioP1;P1;durP2;ratioP2;P2;SDS_P1;SDS_P2;PMS_P1;PMS_P2;Temp;Humidity;BMP_temperature;BMP_pressure;BME280_temperature;BME280_humidity;BME280_pressure;Samples;Min_cycle;Max_cycle;Signal;HPM_P1;HPM_P2
2021/12/10 00:01:49;;;;;;;10.88;3.13;;;;;;;;;;5031128;28;20053;-81
2021/12/10 00:04:23;;;;;;;8.98;3.38;;;;;;;;;;5031641;28;20054;-80
2021/12/10 00:06:52;;;;;;;5.00;2.53;;;;;;;;;;5029702;28;20054;-81
2021/12/10 00:09:23;;;;;;;7.05;2.85;;;;;;;;;;5028212;28;20114;-81
2021/12/10 00:11:54;;;;;;;8.27;3.10;;;;;;;;;;5023121;28;20050;-80
2021/12/10 00:14:27;;;;;;;6.88;2.95;;;;;;;;;;5025972;28;20050;-82
2021/12/10 00:16:55;;;;;;;5.57;2.63;;;;;;;;;;5007069;28;20129;-80
2021/12/10 00:19:30;;;;;;;7.82;2.70;;;;;;;;;;5002158;28;20058;-81
2021/12/10 00:21:59;;;;;;;6.85;3.08;;;;;;;;;;5001150;28;20506;-80
2021/12/10 00:24:30;;;;;;;6.03;2.63;;;;;;;;;;4998773;28;20050;-80
2021/12/10 00:26:57;;;;;;;;;;;;;;;;;;4999296;28;20062;-81
2021/12/10 00:29:25;;;;;;;7.75;2.33;;;;;;;;;;4999210;28;19922;-81
2021/12/10 00:32:00;;;;;;;6.90;2.35;;;;;;;;;;5007856;28;20046;-79
2021/12/10 00:34:33;;;;;;;6.07;2.28;;;;;;;;;;5012670;28;20057;-81
2021/12/10 00:37:04;;;;;;;3.88;1.85;;;;;;;;;;5001276;28;20477;-81
2021/12/10 00:39:34;;;;;;;;;;;;;;;;;;5000327;28;20054;-81
2021/12/10 00:42:05;;;;;;;5.25;1.73;;;;;;;;;;4999033;28;19922;-81
2021/12/10 00:44:31;;;;;;;7.03;2.50;;;;;;;;;;4998695;28;20417;-81
2021/12/10 00:46:58;;;;;;;4.72;1.90;;;;;;;;;;4997988;28;20061;-81
2021/12/10 00:49:25;;;;;;;5.95;2.33;;;;;;;;;;4998306;28;21185;-82
2021/12/10 00:51:52;;;;;;;7.05;1.80;;;;;;;;;;4998354;28;20054;-81
2021/12/10 00:54:20;;;;;;;7.05;2.00;;;;;;;;;;4999587;28;20061;-81
2021/12/10 00:56:49;;;;;;;5.75;2.05;;;;;;;;;;5000316;28;20047;-80
2021/12/10 00:59:17;;;;;;;10.20;2.58;;;;;;;;;;4998674;28;20509;-81
2021/12/10 01:01:45;;;;;;;7.50;2.63;;;;;;;;;;4998473;28;20065;-82
2021/12/10 01:04:15;;;;;;;6.82;2.50;;;;;;;;;;4998403;28;20520;-81
2021/12/10 01:06:46;;;;;;;5.82;2.38;;;;;;;;;;4998374;28;20054;-81
2021/12/10 01:09:15;;;;;;;7.50;2.38;;;;;;;;;;4997757;28;20057;-81
2021/12/10 01:11:48;;;;;;;9.35;2.55;;;;;;;;;;4998109;28;20054;-80
2021/12/10 01:14:24;;;;;;;7.97;2.70;;;;;;;;;;4996053;28;20097;-80
2021/12/10 01:25:14;;;;;;;8.70;3.13;;;;;;;;;;4993627;28;20127;-80
2021/12/10 01:27:45;;;;;;;6.60;2.30;;;;;;;;;;4993587;28;20116;-80
2021/12/10 01:30:17;;;;;;;7.35;3.05;;;;;;;;;;5005146;28;20112;-80
2021/12/10 01:32:49;;;;;;;6.72;2.67;;;;;;;;;;5001898;28;20484;-80
2021/12/10 01:35:18;;;;;;;7.32;2.88;;;;;;;;;;5004110;28;20391;-80
2021/12/10 01:37:45;;;;;;;7.55;2.67;;;;;;;;;;4999413;28;20050;-81
2021/12/10 01:40:13;;;;;;;9.00;2.67;;;;;;;;;;4994123;28;20046;-80
2021/12/10 01:42:45;;;;;;;7.35;2.45;;;;;;;;;;4994097;28;20061;-80
2021/12/10 01:45:21;;;;;;;6.82;2.83;;;;;;;;;;4993898;28;20042;-79
2021/12/10 01:47:53;;;;;;;9.00;3.20;;;;;;;;;;4993946;28;20125;-81
2021/12/10 01:50:20;;;;;;;7.80;2.92;;;;;;;;;;5023431;23;20038;-65
2021/12/10 01:52:51;;;;;;;8.15;3.03;;;;;;;;;;5012373;28;20056;-64
2021/12/10 01:55:21;;;;;;;6.88;2.65;;;;;;;;;;5012421;28;20050;-66
2021/12/10 01:57:49;;;;;;;5.78;2.80;;;;;;;;;;5012356;28;20049;-66
2021/12/10 02:00:20;;;;;;;4.90;2.40;;;;;;;;;;5012658;28;20061;-66
2021/12/10 02:02:48;;;;;;;5.78;2.45;;;;;;;;;;5012707;28;20137;-66
2021/12/10 02:05:16;;;;;;;4.05;1.77;;;;;;;;;;5012350;28;20133;-65
2021/12/10 02:07:44;;;;;;;5.35;1.83;;;;;;;;;;5011807;28;20052;-65
2021/12/10 02:10:13;;;;;;;4.70;1.65;;;;;;;;;;5011834;28;20133;-65
2021/12/10 02:12:40;;;;;;;3.85;1.40;;;;;;;;;;5011901;28;20058;-65
2021/12/10 02:15:11;;;;;;;4.43;1.42;;;;;;;;;;5011854;28;20060;-65
2021/12/10 02:17:42;;;;;;;6.03;1.70;;;;;;;;;;5011705;28;20060;-64
2021/12/10 02:20:13;;;;;;;4.40;1.85;;;;;;;;;;5011853;28;20052;-65
2021/12/10 02:22:43;;;;;;;5.35;2.00;;;;;;;;;;5011644;28;20060;-64
2021/12/10 02:25:10;;;;;;;5.70;2.30;;;;;;;;;;5012119;28;20085;-64
2021/12/10 02:27:38;;;;;;;4.75;2.30;;;;;;;;;;5011511;28;20045;-65
2021/12/10 02:30:08;;;;;;;5.68;1.83;;;;;;;;;;5011607;28;20108;-65
2021/12/10 02:32:35;;;;;;;6.85;1.80;;;;;;;;;;5011695;28;20053;-64
2021/12/10 02:35:02;;;;;;;4.22;1.98;;;;;;;;;;5011588;28;20058;-65
2021/12/10 02:37:29;;;;;;;6.82;2.20;;;;;;;;;;5011571;28;20459;-65
2021/12/10 02:39:57;;;;;;;5.30;1.92;;;;;;;;;;5011800;28;20423;-65
2021/12/10 02:42:24;;;;;;;7.95;2.08;;;;;;;;;;5011377;28;20042;-64
2021/12/10 02:44:52;;;;;;;4.53;1.85;;;;;;;;;;5011249;28;20050;-65
2021/12/10 02:47:20;;;;;;;5.00;2.00;;;;;;;;;;5011385;28;20053;-65
2021/12/10 02:49:47;;;;;;;6.55;1.98;;;;;;;;;;5011263;28;20049;-65
2021/12/10 02:52:15;;;;;;;6.25;2.00;;;;;;;;;;5013886;28;20050;-65
2021/12/10 02:54:43;;;;;;;3.80;1.80;;;;;;;;;;5015288;28;20414;-65
2021/12/10 02:57:17;;;;;;;4.47;1.90;;;;;;;;;;5015244;28;20053;-65
2021/12/10 02:59:44;;;;;;;4.22;1.88;;;;;;;;;;5014937;28;20430;-65
2021/12/10 03:02:14;;;;;;;5.90;1.92;;;;;;;;;;5014885;28;20053;-65
2021/12/10 03:04:42;;;;;;;4.78;1.85;;;;;;;;;;5014981;28;20056;-65
2021/12/10 03:07:14;;;;;;;5.15;1.90;;;;;;;;;;5014857;28;20418;-65
2021/12/10 03:09:42;;;;;;;4.03;1.80;;;;;;;;;;5014515;28;20049;-65
2021/12/10 03:12:12;;;;;;;8.20;2.15;;;;;;;;;;5014840;28;20132;-65
2021/12/10 03:14:42;;;;;;;5.00;2.17;;;;;;;;;;5015177;28;20137;-65
2021/12/10 03:17:15;;;;;;;4.30;1.70;;;;;;;;;;5014809;28;20081;-65
2021/12/10 03:19:42;;;;;;;4.25;1.83;;;;;;;;;;5014367;28;20056;-64
2021/12/10 03:22:10;;;;;;;5.30;1.88;;;;;;;;;;5014526;28;20137;-65
2021/12/10 03:24:38;;;;;;;3.80;1.85;;;;;;;;;;5014550;28;20058;-65
2021/12/10 03:27:07;;;;;;;3.38;1.75;;;;;;;;;;5014601;28;20042;-65
2021/12/10 03:29:40;;;;;;;4.50;1.65;;;;;;;;;;5014431;28;20507;-65
2021/12/10 03:32:13;;;;;;;3.05;1.75;;;;;;;;;;5014490;28;20049;-65
2021/12/10 03:34:41;;;;;;;4.10;1.52;;;;;;;;;;5014348;28;20054;-65
2021/12/10 03:37:09;;;;;;;6.05;1.88;;;;;;;;;;5014382;28;20072;-64
2021/12/10 03:39:36;;;;;;;4.53;1.90;;;;;;;;;;5013997;28;20054;-65
2021/12/10 03:42:06;;;;;;;4.60;1.40;;;;;;;;;;5014230;28;20058;-64
2021/12/10 03:44:34;;;;;;;3.78;1.60;;;;;;;;;;5014171;28;20041;-64
2021/12/10 03:47:06;;;;;;;3.08;1.25;;;;;;;;;;5014173;28;20045;-65
2021/12/10 03:49:33;;;;;;;3.22;1.40;;;;;;;;;;5014260;28;20056;-63
2021/12/10 03:52:00;;;;;;;2.45;1.30;;;;;;;;;;5014041;28;20478;-63
2021/12/10 03:54:29;;;;;;;2.88;1.30;;;;;;;;;;5014243;28;20072;-63
2021/12/10 03:56:56;;;;;;;2.65;1.45;;;;;;;;;;5014184;28;20162;-63
2021/12/10 03:59:25;;;;;;;2.25;1.20;;;;;;;;;;5014411;28;20129;-64
2021/12/10 04:01:56;;;;;;;4.35;1.50;;;;;;;;;;5014147;28;20094;-65
2021/12/10 04:04:29;;;;;;;4.55;1.40;;;;;;;;;;5013398;28;20513;-66
2021/12/10 04:06:58;;;;;;;3.53;1.50;;;;;;;;;;5014108;28;20053;-65
2021/12/10 04:09:25;;;;;;;3.97;1.33;;;;;;;;;;5014208;28;20157;-65
2021/12/10 04:11:55;;;;;;;3.63;1.70;;;;;;;;;;5014459;28;20046;-64
2021/12/10 04:14:23;;;;;;;3.63;1.30;;;;;;;;;;5013881;28;20125;-64
2021/12/10 04:16:55;;;;;;;2.28;1.08;;;;;;;;;;5013625;28;20042;-65
2021/12/10 04:19:26;;;;;;;2.92;1.00;;;;;;;;;;5013133;28;20110;-65
2021/12/10 04:21:56;;;;;;;3.50;1.35;;;;;;;;;;5013648;28;20050;-64
2021/12/10 04:24:25;;;;;;;4.63;1.50;;;;;;;;;;5013688;28;20046;-65
2021/12/10 04:26:53;;;;;;;3.45;1.40;;;;;;;;;;5013663;28;20088;-65
2021/12/10 04:29:21;;;;;;;3.53;1.30;;;;;;;;;;5013660;28;20048;-64
2021/12/10 04:31:49;;;;;;;2.53;1.40;;;;;;;;;;5012994;28;20053;-65
2021/12/10 04:34:16;;;;;;;3.42;1.25;;;;;;;;;;5013255;28;20438;-65
2021/12/10 04:36:44;;;;;;;3.03;1.13;;;;;;;;;;5013072;28;20046;-64
2021/12/10 04:39:12;;;;;;;2.67;1.30;;;;;;;;;;5012979;28;20077;-64
2021/12/10 04:41:39;;;;;;;3.10;1.05;;;;;;;;;;5013311;28;20060;-64
2021/12/10 04:44:07;;;;;;;3.63;1.02;;;;;;;;;;5013088;28;20049;-64
2021/12/10 04:46:34;;;;;;;1.95;1.10;;;;;;;;;;5012934;28;20058;-64
2021/12/10 04:49:05;;;;;;;2.97;1.10;;;;;;;;;;5012794;28;20052;-64
2021/12/10 04:51:33;;;;;;;;;;;;;;;;;;5013451;28;20052;-64
2021/12/10 04:54:04;;;;;;;2.47;1.08;;;;;;;;;;5012868;28;19967;-64
2021/12/10 04:56:32;;;;;;;3.15;1.20;;;;;;;;;;5013013;28;20052;-64
2021/12/10 04:59:00;;;;;;;2.28;1.17;;;;;;;;;;5012812;28;20053;-64
2021/12/10 05:01:27;;;;;;;2.78;1.30;;;;;;;;;;5012905;28;20372;-64
2021/12/10 05:03:54;;;;;;;2.72;1.20;;;;;;;;;;5013437;28;20054;-64
2021/12/10 05:06:21;;;;;;;3.53;1.60;;;;;;;;;;5012818;28;20581;-65
2021/12/10 05:08:48;;;;;;;3.50;1.90;;;;;;;;;;5012627;28;20056;-65
2021/12/10 05:11:17;;;;;;;3.85;1.50;;;;;;;;;;5013029;28;20052;-65
2021/12/10 05:13:47;;;;;;;3.53;1.20;;;;;;;;;;5012786;28;20050;-65
2021/12/10 05:16:15;;;;;;;2.33;1.05;;;;;;;;;;5012701;28;20427;-65
2021/12/10 05:18:48;;;;;;;4.13;1.52;;;;;;;;;;5012242;28;20050;-65
2021/12/10 05:21:16;;;;;;;2.42;1.10;;;;;;;;;;5012380;28;20076;-65
2021/12/10 05:23:43;;;;;;;2.88;1.33;;;;;;;;;;5013030;28;20072;-65
2021/12/10 05:26:10;;;;;;;3.30;1.48;;;;;;;;;;5012264;28;20091;-65
2021/12/10 05:28:38;;;;;;;5.07;1.55;;;;;;;;;;5012213;28;20046;-65
2021/12/10 05:31:05;;;;;;;5.00;1.75;;;;;;;;;;5012608;28;20056;-65
2021/12/10 05:33:32;;;;;;;4.72;1.83;;;;;;;;;;5012252;28;20312;-65
2021/12/10 05:36:01;;;;;;;3.25;1.27;;;;;;;;;;5012566;28;20128;-65
2021/12/10 05:38:28;;;;;;;3.42;1.60;;;;;;;;;;5012188;28;20064;-65
2021/12/10 05:40:57;;;;;;;3.60;1.75;;;;;;;;;;5012454;28;20052;-65
2021/12/10 05:43:24;;;;;;;2.65;1.30;;;;;;;;;;5012418;28;20049;-65
2021/12/10 05:45:54;;;;;;;3.17;1.40;;;;;;;;;;5012044;28;20451;-65
2021/12/10 05:48:21;;;;;;;2.45;1.33;;;;;;;;;;5011893;28;20081;-65
2021/12/10 05:50:48;;;;;;;3.75;1.70;;;;;;;;;;5012119;28;20081;-65
2021/12/10 05:53:16;;;;;;;5.55;1.70;;;;;;;;;;5012353;28;20052;-65
2021/12/10 05:55:44;;;;;;;3.72;1.60;;;;;;;;;;5012363;28;20054;-65
2021/12/10 05:58:12;;;;;;;3.28;1.58;;;;;;;;;;5011920;28;20056;-65
2021/12/10 06:00:42;;;;;;;3.50;1.38;;;;;;;;;;5011973;28;20076;-65
2021/12/10 06:03:10;;;;;;;5.00;1.77;;;;;;;;;;5012028;28;20141;-65
2021/12/10 06:05:39;;;;;;;3.13;1.60;;;;;;;;;;5011916;28;20045;-65
2021/12/10 06:08:06;;;;;;;3.13;1.35;;;;;;;;;;5011640;28;20137;-65
2021/12/10 06:10:34;;;;;;;3.50;1.60;;;;;;;;;;5011916;28;20045;-65
2021/12/10 06:13:01;;;;;;;3.28;1.80;;;;;;;;;;5011930;28;20414;-64
2021/12/10 06:15:29;;;;;;;5.20;2.08;;;;;;;;;;5011772;28;20053;-65
2021/12/10 06:17:57;;;;;;;3.70;1.77;;;;;;;;;;5011951;28;20410;-65
2021/12/10 06:20:28;;;;;;;3.55;1.90;;;;;;;;;;5011825;28;20046;-65
2021/12/10 06:22:57;;;;;;;3.92;1.90;;;;;;;;;;5011694;28;20100;-65
2021/12/10 06:25:24;;;;;;;5.53;2.22;;;;;;;;;;5011671;28;20042;-65
2021/12/10 06:27:51;;;;;;;3.80;2.00;;;;;;;;;;5015074;28;20066;-65
2021/12/10 06:30:21;;;;;;;6.07;3.22;;;;;;;;;;5015561;28;20054;-65
2021/12/10 06:32:50;;;;;;;7.60;2.73;;;;;;;;;;5015734;28;20155;-65
2021/12/10 06:35:18;;;;;;;5.30;2.58;;;;;;;;;;5015500;28;20050;-65
2021/12/10 06:37:47;;;;;;;5.38;2.40;;;;;;;;;;5015242;28;20052;-65
2021/12/10 06:40:19;;;;;;;6.80;2.50;;;;;;;;;;5015336;28;20050;-64
2021/12/10 06:42:46;;;;;;;4.68;2.47;;;;;;;;;;5015443;28;20057;-64
2021/12/10 06:45:17;;;;;;;6.88;3.35;;;;;;;;;;5015240;28;20129;-65
2021/12/10 06:47:48;;;;;;;7.07;3.63;;;;;;;;;;5015294;28;20072;-65
2021/12/10 06:50:16;;;;;;;7.40;4.07;;;;;;;;;;5015222;28;20050;-63
2021/12/10 06:52:43;;;;;;;6.55;3.35;;;;;;;;;;5015262;28;20053;-64
2021/12/10 06:55:13;;;;;;;7.68;4.18;;;;;;;;;;5014987;28;20042;-64
2021/12/10 06:57:40;;;;;;;9.20;4.32;;;;;;;;;;5014925;28;20503;-62
2021/12/10 07:00:12;;;;;;;8.30;4.38;;;;;;;;;;5015435;28;20108;-65
2021/12/10 07:02:39;;;;;;;10.32;4.70;;;;;;;;;;5015078;28;20177;-65
2021/12/10 07:05:07;;;;;;;7.25;4.25;;;;;;;;;;5015564;28;20553;-64
2021/12/10 07:07:34;;;;;;;10.32;4.30;;;;;;;;;;5014987;28;20046;-64
2021/12/10 07:10:01;;;;;;;9.27;5.13;;;;;;;;;;5015114;28;20086;-64
2021/12/10 07:12:30;;;;;;;8.57;4.35;;;;;;;;;;5014740;28;20543;-64
2021/12/10 07:15:01;;;;;;;9.40;4.30;;;;;;;;;;5014971;28;20531;-64
2021/12/10 07:17:28;;;;;;;;;;;;;;;;;;5015317;28;20192;-64
2021/12/10 07:19:57;;;;;;;8.20;4.30;;;;;;;;;;5015057;28;19952;-65
2021/12/10 07:22:25;;;;;;;9.55;5.50;;;;;;;;;;5014860;28;20503;-64
2021/12/10 07:24:53;;;;;;;7.95;4.20;;;;;;;;;;5014635;28;20100;-64
2021/12/10 07:27:20;;;;;;;9.02;5.38;;;;;;;;;;5014566;28;20112;-64
2021/12/10 07:29:49;;;;;;;8.43;4.38;;;;;;;;;;5014377;28;20056;-63
2021/12/10 07:32:16;;;;;;;11.05;5.15;;;;;;;;;;5014351;28;20069;-63
2021/12/10 07:34:43;;;;;;;10.13;5.35;;;;;;;;;;5014937;28;20052;-64
2021/12/10 07:37:11;;;;;;;10.82;5.18;;;;;;;;;;5015055;28;20050;-64
2021/12/10 07:39:38;;;;;;;10.15;5.30;;;;;;;;;;5014166;28;20176;-64
2021/12/10 07:42:07;;;;;;;11.55;4.85;;;;;;;;;;5014201;28;20046;-64
2021/12/10 07:44:34;;;;;;;17.83;9.80;;;;;;;;;;5014684;28;20054;-64
2021/12/10 07:47:04;;;;;;;11.68;6.10;;;;;;;;;;5014280;28;20045;-64
2021/12/10 07:49:32;;;;;;;8.35;4.68;;;;;;;;;;5014502;28;20050;-63
2021/12/10 07:52:00;;;;;;;7.68;3.97;;;;;;;;;;5022943;23;20057;-79
2021/12/10 07:54:28;;;;;;;7.85;3.95;;;;;;;;;;4998418;28;20054;-80
2021/12/10 07:56:55;;;;;;;9.23;4.93;;;;;;;;;;5000364;28;20081;-80
2021/12/10 07:59:22;;;;;;;8.68;4.53;;;;;;;;;;4999972;28;20109;-79
2021/12/10 08:01:48;;;;;;;8.32;4.88;;;;;;;;;;4999610;28;20092;-79
2021/12/10 08:04:17;;;;;;;6.78;3.95;;;;;;;;;;4996617;28;20053;-79
2021/12/10 08:06:44;;;;;;;7.05;4.28;;;;;;;;;;4996670;28;20101;-79
2021/12/10 08:09:11;;;;;;;10.15;4.90;;;;;;;;;;4996031;28;20050;-79
2021/12/10 08:11:39;;;;;;;8.45;4.43;;;;;;;;;;4997815;28;20088;-80
2021/12/10 08:14:07;;;;;;;7.57;4.22;;;;;;;;;;5006225;28;20525;-78
2021/12/10 08:16:34;;;;;;;8.82;4.63;;;;;;;;;;5012486;28;20133;-80
2021/12/10 08:19:00;;;;;;;7.43;3.90;;;;;;;;;;5002880;28;20058;-79
2021/12/10 08:21:29;;;;;;;21.02;10.02;;;;;;;;;;5006832;28;20054;-79
2021/12/10 08:23:56;;;;;;;10.02;4.35;;;;;;;;;;5001304;28;20046;-80
2021/12/10 08:26:22;;;;;;;8.02;4.57;;;;;;;;;;5002179;28;20045;-80
2021/12/10 08:28:51;;;;;;;9.40;4.97;;;;;;;;;;4999772;28;20425;-80
2021/12/10 08:31:18;;;;;;;10.07;4.53;;;;;;;;;;4999254;28;20096;-80
2021/12/10 08:33:48;;;;;;;8.05;4.10;;;;;;;;;;4998283;28;20043;-80
2021/12/10 08:36:16;;;;;;;8.18;3.97;;;;;;;;;;4998885;28;20061;-82
2021/12/10 08:38:45;;;;;;;8.50;4.78;;;;;;;;;;5000294;28;20046;-81
2021/12/10 08:41:15;;;;;;;7.90;4.45;;;;;;;;;;4998982;28;20508;-79
2021/12/10 08:43:56;;;;;;;;;;;;;;;;;;;;;
2021/12/10 08:46:23;;;;;;;8.35;4.80;;;;;;;;;;5003330;28;20149;-82
2021/12/10 08:48:51;;;;;;;7.80;4.82;;;;;;;;;;4999503;28;20054;-79
2021/12/10 08:51:20;;;;;;;9.20;4.47;;;;;;;;;;4999390;28;20050;-80
2021/12/10 08:53:49;;;;;;;9.13;4.78;;;;;;;;;;4999958;28;20058;-80
2021/12/10 08:56:16;;;;;;;8.23;4.82;;;;;;;;;;5000503;28;20053;-81
2021/12/10 08:58:43;;;;;;;10.32;4.75;;;;;;;;;;5001762;28;20061;-80
2021/12/10 09:01:13;;;;;;;8.85;5.28;;;;;;;;;;5000593;28;20066;-80
2021/12/10 09:03:40;;;;;;;8.63;4.45;;;;;;;;;;5001324;28;20492;-79
2021/12/10 09:06:09;;;;;;;8.70;4.43;;;;;;;;;;5001592;28;20058;-80
2021/12/10 09:08:37;;;;;;;8.18;4.38;;;;;;;;;;5001739;28;20053;-81
2021/12/10 09:11:05;;;;;;;10.02;5.43;;;;;;;;;;5001651;28;20062;-81
2021/12/10 09:13:32;;;;;;;10.02;4.55;;;;;;;;;;5001478;28;20393;-79
2021/12/10 09:16:02;;;;;;;8.25;4.60;;;;;;;;;;5000952;28;20053;-81
2021/12/10 09:18:29;;;;;;;10.68;4.80;;;;;;;;;;5001574;28;20061;-79
2021/12/10 09:20:58;;;;;;;10.07;5.10;;;;;;;;;;5000725;28;20054;-80
2021/12/10 09:23:28;;;;;;;20.30;11.25;;;;;;;;;;5001357;28;20136;-80
2021/12/10 09:25:58;;;;;;;8.93;5.22;;;;;;;;;;5000965;28;20082;-80
2021/12/10 09:28:27;;;;;;;8.93;4.82;;;;;;;;;;5000975;28;20125;-81
2021/12/10 09:30:57;;;;;;;7.85;4.07;;;;;;;;;;5002764;28;20046;-80
2021/12/10 09:33:24;;;;;;;8.32;4.35;;;;;;;;;;5002764;28;20084;-80
2021/12/10 09:35:51;;;;;;;9.73;5.28;;;;;;;;;;5014456;28;20038;-81
2021/12/10 09:38:20;;;;;;;7.57;4.10;;;;;;;;;;5020021;28;20045;-79
2021/12/10 09:40:52;;;;;;;10.05;5.07;;;;;;;;;;5021004;28;20042;-79
2021/12/10 09:43:20;;;;;;;9.60;4.07;;;;;;;;;;5011458;28;20065;-81
2021/12/10 09:45:49;;;;;;;8.15;3.90;;;;;;;;;;5000371;28;20042;-80
2021/12/10 09:48:18;;;;;;;9.70;4.30;;;;;;;;;;5000195;28;20054;-81
2021/12/10 09:50:49;;;;;;;7.50;3.53;;;;;;;;;;4999457;28;20527;-80
2021/12/10 09:53:17;;;;;;;7.85;4.10;;;;;;;;;;5011234;28;20141;-80
2021/12/10 09:55:46;;;;;;;7.30;3.97;;;;;;;;;;4999954;28;20050;-80
2021/12/10 09:58:14;;;;;;;8.20;4.22;;;;;;;;;;4999166;28;20042;-80
2021/12/10 10:00:44;;;;;;;8.00;3.67;;;;;;;;;;4998758;28;20053;-82
2021/12/10 10:03:15;;;;;;;8.35;4.20;;;;;;;;;;5002797;28;20057;-81
2021/12/10 10:05:45;;;;;;;7.43;3.58;;;;;;;;;;5004633;28;20046;-81
2021/12/10 10:08:15;;;;;;;8.00;4.18;;;;;;;;;;5003115;28;20050;-81
2021/12/10 10:10:45;;;;;;;8.65;4.15;;;;;;;;;;5003973;28;20077;-80
2021/12/10 10:13:13;;;;;;;9.38;4.25;;;;;;;;;;5007450;28;20038;-79
2021/12/10 10:15:43;;;;;;;9.57;4.25;;;;;;;;;;5010223;28;20459;-78
2021/12/10 10:18:12;;;;;;;7.75;4.03;;;;;;;;;;5011116;28;20042;-79
2021/12/10 10:20:43;;;;;;;8.18;4.25;;;;;;;;;;5009603;28;20061;-79
2021/12/10 10:23:11;;;;;;;6.55;3.83;;;;;;;;;;5005252;28;20583;-81
2021/12/10 10:25:42;;;;;;;7.18;3.67;;;;;;;;;;5007291;28;20051;-80
2021/12/10 10:28:11;;;;;;;6.75;3.42;;;;;;;;;;5003863;28;20049;-83
2021/12/10 10:30:41;;;;;;;6.07;3.30;;;;;;;;;;5005731;28;20046;-83
2021/12/10 10:33:11;;;;;;;8.13;4.00;;;;;;;;;;5005741;28;20034;-82
2021/12/10 10:35:44;;;;;;;7.85;3.88;;;;;;;;;;5005807;28;20058;-82
2021/12/10 10:38:12;;;;;;;6.18;3.30;;;;;;;;;;5006223;28;20057;-81
2021/12/10 10:40:43;;;;;;;6.47;3.38;;;;;;;;;;5006523;28;20077;-80
2021/12/10 10:43:10;;;;;;;5.43;3.47;;;;;;;;;;5006046;28;20525;-81
2021/12/10 10:45:42;;;;;;;6.43;3.25;;;;;;;;;;5005164;28;20069;-82
2021/12/10 10:48:11;;;;;;;7.18;4.07;;;;;;;;;;5005336;28;20049;-81
2021/12/10 10:50:46;;;;;;;8.52;3.42;;;;;;;;;;5004687;28;20112;-82
2021/12/10 10:53:15;;;;;;;6.80;3.53;;;;;;;;;;5004611;28;20046;-79
2021/12/10 10:55:51;;;;;;;6.72;3.40;;;;;;;;;;5003984;28;20057;-81
2021/12/10 10:58:19;;;;;;;6.07;3.42;;;;;;;;;;5001346;28;20050;-82
2021/12/10 11:00:56;;;;;;;5.35;3.40;;;;;;;;;;5002438;28;20468;-81
2021/12/10 11:03:35;;;;;;;7.32;3.85;;;;;;;;;;5005022;28;20048;-82
2021/12/10 11:06:06;;;;;;;6.10;3.08;;;;;;;;;;5003512;28;20072;-79
2021/12/10 11:08:34;;;;;;;;;;;;;;;;;;5004319;28;20080;-81
2021/12/10 11:11:10;;;;;;;6.18;3.08;;;;;;;;;;5003920;28;19925;-82
2021/12/10 11:13:39;;;;;;;8.02;3.42;;;;;;;;;;5001207;28;20042;-82
2021/12/10 11:16:09;;;;;;;6.60;3.33;;;;;;;;;;5003681;28;20046;-82
2021/12/10 11:18:46;;;;;;;7.05;3.42;;;;;;;;;;5003555;28;20054;-79
2021/12/10 11:21:17;;;;;;;5.50;3.20;;;;;;;;;;5003876;28;20053;-85
2021/12/10 11:23:44;;;;;;;10.98;4.68;;;;;;;;;;5007841;28;20081;-82
2021/12/10 11:26:12;;;;;;;6.57;3.10;;;;;;;;;;5006099;28;20058;-79
2021/12/10 11:28:42;;;;;;;6.38;3.75;;;;;;;;;;5004739;28;20142;-78
2021/12/10 11:31:14;;;;;;;9.97;3.87;;;;;;;;;;5005139;28;20675;-80
2021/12/10 11:33:48;;;;;;;6.80;3.58;;;;;;;;;;5010227;28;20457;-83
2021/12/10 11:36:21;;;;;;;8.38;3.72;;;;;;;;;;5015242;28;20058;-82
2021/12/10 11:38:54;;;;;;;6.78;3.20;;;;;;;;;;5015024;28;20122;-83
2021/12/10 11:41:25;;;;;;;6.38;3.50;;;;;;;;;;5007119;28;20413;-84
2021/12/10 11:44:07;;;;;;;8.55;3.60;;;;;;;;;;5001610;28;20058;-82
2021/12/10 11:46:47;;;;;;;;;;;;;;;;;;5002617;28;20046;-82
2021/12/10 11:49:21;;;;;;;6.07;3.33;;;;;;;;;;5006336;28;19922;-80
2021/12/10 11:51:56;;;;;;;8.20;3.70;;;;;;;;;;5007861;28;20081;-81
2021/12/10 11:54:29;;;;;;;8.98;3.35;;;;;;;;;;5006907;28;20080;-82
2021/12/10 11:56:59;;;;;;;7.28;3.63;;;;;;;;;;5004617;28;20046;-78
2021/12/10 11:59:28;;;;;;;6.15;3.22;;;;;;;;;;5002350;28;20042;-81
2021/12/10 12:02:02;;;;;;;7.75;4.10;;;;;;;;;;5000794;28;20057;-82
2021/12/10 12:04:34;;;;;;;6.22;3.10;;;;;;;;;;4999768;28;20077;-81
2021/12/10 12:07:22;;;;;;;7.05;3.63;;;;;;;;;;4999581;28;20038;-81
2021/12/10 12:09:52;;;;;;;6.03;3.60;;;;;;;;;;4999051;28;20057;-79
2021/12/10 12:12:26;;;;;;;8.85;4.13;;;;;;;;;;5000666;28;20108;-79
2021/12/10 12:14:55;;;;;;;7.88;3.65;;;;;;;;;;4999869;28;20050;-81
2021/12/10 12:17:36;;;;;;;6.25;3.75;;;;;;;;;;4999917;28;20057;-80
2021/12/10 12:20:14;;;;;;;6.05;3.63;;;;;;;;;;4999748;28;20050;-78
2021/12/10 12:25:30;;;;;;;9.80;3.53;;;;;;;;;;5002743;28;20061;-80
2021/12/10 12:28:05;;;;;;;8.57;3.85;;;;;;;;;;5003002;28;20069;-81
2021/12/10 12:30:32;;;;;;;10.80;4.05;;;;;;;;;;5001673;28;20669;-80
2021/12/10 12:32:59;;;;;;;6.30;3.78;;;;;;;;;;5002819;28;20093;-80
2021/12/10 12:35:30;;;;;;;11.07;4.88;;;;;;;;;;5001466;28;20046;-80
2021/12/10 12:38:15;;;;;;;7.70;3.50;;;;;;;;;;5005312;28;20066;-80
2021/12/10 12:40:44;;;;;;;8.05;4.40;;;;;;;;;;5004708;28;20109;-80
2021/12/10 12:43:12;;;;;;;7.78;4.38;;;;;;;;;;5004996;28;20094;-80
2021/12/10 12:45:41;;;;;;;8.07;4.28;;;;;;;;;;5001569;28;20046;-82
2021/12/10 12:48:11;;;;;;;6.88;3.90;;;;;;;;;;5000611;28;20054;-80
2021/12/10 12:50:41;;;;;;;9.25;4.15;;;;;;;;;;5003174;28;20061;-81
2021/12/10 12:53:13;;;;;;;7.25;4.18;;;;;;;;;;5007527;28;20539;-81
2021/12/10 12:55:48;;;;;;;8.15;3.80;;;;;;;;;;5006956;28;20066;-80
2021/12/10 12:58:24;;;;;;;9.88;4.15;;;;;;;;;;5003229;28;20050;-81
2021/12/10 13:00:59;;;;;;;9.27;4.65;;;;;;;;;;5000842;28;20056;-82
2021/12/10 13:03:33;;;;;;;10.23;4.70;;;;;;;;;;4998624;28;20042;-81
2021/12/10 13:06:06;;;;;;;8.65;4.20;;;;;;;;;;4998857;28;20512;-81
2021/12/10 13:08:36;;;;;;;12.32;5.20;;;;;;;;;;4998901;28;20050;-81
2021/12/10 13:11:11;;;;;;;14.15;5.72;;;;;;;;;;5001768;28;20061;-81
2021/12/10 13:13:43;;;;;;;6.35;3.38;;;;;;;;;;5005420;28;20043;-80
2021/12/10 13:16:12;;;;;;;6.50;3.40;;;;;;;;;;4999071;28;20117;-80
2021/12/10 13:18:40;;;;;;;5.75;3.10;;;;;;;;;;4997359;28;20112;-81
2021/12/10 13:21:08;;;;;;;6.30;3.22;;;;;;;;;;5000040;28;20201;-80
2021/12/10 13:23:39;;;;;;;7.43;3.90;;;;;;;;;;5004057;28;20060;-80
2021/12/10 13:26:10;;;;;;;9.80;3.67;;;;;;;;;;5001995;28;20515;-80
2021/12/10 13:28:37;;;;;;;6.90;3.53;;;;;;;;;;5002493;28;20049;-80
2021/12/10 13:31:06;;;;;;;7.47;3.40;;;;;;;;;;5002703;28;20046;-80
2021/12/10 13:33:36;;;;;;;7.80;3.60;;;;;;;;;;4998309;28;20046;-81
2021/12/10 13:36:10;;;;;;;6.65;3.50;;;;;;;;;;5000269;28;20301;-82
2021/12/10 13:38:39;;;;;;;6.03;3.13;;;;;;;;;;5000384;28;20138;-80
2021/12/10 13:41:09;;;;;;;6.20;3.50;;;;;;;;;;5000024;28;20050;-82
2021/12/10 13:43:38;;;;;;;7.07;3.60;;;;;;;;;;4999544;28;20057;-81
2021/12/10 13:46:10;;;;;;;8.32;3.78;;;;;;;;;;5000216;28;20069;-80
2021/12/10 13:48:41;;;;;;;7.28;3.67;;;;;;;;;;5000739;28;20046;-82
2021/12/10 13:51:11;;;;;;;6.90;3.13;;;;;;;;;;5000797;28;20057;-80
2021/12/10 13:53:40;;;;;;;6.30;3.57;;;;;;;;;;4999144;28;20041;-81
2021/12/10 13:56:09;;;;;;;5.25;3.20;;;;;;;;;;5028300;23;20512;-66
2021/12/10 13:58:41;;;;;;;6.63;3.60;;;;;;;;;;5016820;28;20060;-64
2021/12/10 14:01:11;;;;;;;5.78;3.03;;;;;;;;;;5015660;28;20321;-66
2021/12/10 14:03:46;;;;;;;5.95;3.45;;;;;;;;;;5016474;28;20499;-65
2021/12/10 14:06:16;;;;;;;7.63;3.55;;;;;;;;;;5015448;28;20486;-66
2021/12/10 14:08:47;;;;;;;7.65;3.80;;;;;;;;;;5014006;28;20085;-65
2021/12/10 14:11:25;;;;;;;7.43;4.07;;;;;;;;;;5015387;28;20064;-66
2021/12/10 14:14:06;;;;;;;10.82;4.35;;;;;;;;;;5017925;28;20038;-66
2021/12/10 14:16:52;;;;;;;8.27;3.88;;;;;;;;;;5015010;28;20136;-65
2021/12/10 14:19:35;;;;;;;6.10;3.47;;;;;;;;;;5016697;28;20490;-65
2021/12/10 14:22:03;;;;;;;7.63;3.88;;;;;;;;;;5016300;28;20494;-66
2021/12/10 14:24:43;;;;;;;9.02;4.05;;;;;;;;;;5014784;28;20042;-65
2021/12/10 14:27:17;;;;;;;10.05;4.43;;;;;;;;;;5017532;28;20088;-65
2021/12/10 14:29:45;;;;;;;6.35;3.20;;;;;;;;;;5016235;28;20127;-65
2021/12/10 14:32:23;;;;;;;12.75;3.65;;;;;;;;;;5015924;28;20046;-65
2021/12/10 14:35:07;;;;;;;6.45;3.28;;;;;;;;;;5014000;28;20099;-65
2021/12/10 14:37:48;;;;;;;6.47;2.83;;;;;;;;;;5015054;28;20572;-65
2021/12/10 14:40:17;;;;;;;4.72;2.85;;;;;;;;;;5015933;28;20075;-65
2021/12/10 14:43:14;;;;;;;5.18;2.40;;;;;;;;;;5015540;28;20136;-65
2021/12/10 14:46:22;;;;;;;7.22;2.78;;;;;;;;;;5014209;28;20046;-65
2021/12/10 14:49:23;;;;;;;5.03;2.47;;;;;;;;;;4976326;28;20061;-66
2021/12/10 14:52:14;;;;;;;6.85;2.72;;;;;;;;;;4977424;28;20058;-65
2021/12/10 14:55:03;;;;;;;;;;;;;;;;;;5015207;28;20077;-66
2021/12/10 14:57:52;;;;;;;6.57;2.45;;;;;;;;;;5020294;28;20012;-66
2021/12/10 15:00:44;;;;;;;5.65;2.50;;;;;;;;;;5020028;28;20516;-66
2021/12/10 15:03:15;;;;;;;7.30;2.90;;;;;;;;;;5018549;28;20421;-66
2021/12/10 15:05:48;;;;;;;4.07;2.30;;;;;;;;;;5019415;28;20104;-66
2021/12/10 15:08:33;;;;;;;5.15;2.30;;;;;;;;;;5019519;28;20112;-65
2021/12/10 15:11:04;;;;;;;5.25;2.40;;;;;;;;;;5019957;28;20050;-65
2021/12/10 15:13:34;;;;;;;5.40;2.40;;;;;;;;;;5018752;28;20077;-66
2021/12/10 15:16:10;;;;;;;8.20;2.75;;;;;;;;;;5021570;28;20486;-65